sensor_id;sensor_type;location;lat;lon;timestamp;pressure;altitude;pressure_sealevel;temperature;humidity
30819;BME280;17546;42.674;23.284;2023-11-19T00:00:27;94702.03;;;8.41;45.88
30819;BME280;17546;42.674;23.284;2023-11-19T00:02:52;94651.38;;;8.44;45.18
30819;BME280;17546;42.674;23.284;2023-11-19T00:05:18;94695.00;;;8.60;45.01
30819;BME280;17546;42.674;23.284;2023-11-19T00:07:44;94680.81;;;8.32;46.05
30819;BME280;17546;42.674;23.284;2023-11-19T00:10:14;94670.97;;;8.25;46.00
30819;BME280;17546;42.674;23.284;2023-11-19T00:12:44;94648.50;;;7.77;46.55
30819;BME280;17546;42.674;23.284;2023-11-19T00:15:10;94670.44;;;7.86;46.36
30819;BME280;17546;42.674;23.284;2023-11-19T00:17:42;94686.41;;;8.38;45.81
30819;BME280;17546;42.674;23.284;2023-11-19T00:20:11;94689.53;;;8.45;45.39
30819;BME280;17546;42.674;23.284;2023-11-19T00:22:37;94649.16;;;8.07;45.53
30819;BME280;17546;42.674;23.284;2023-11-19T00:25:03;94642.88;;;8.27;45.33
30819;BME280;17546;42.674;23.284;2023-11-19T00:27:29;94677.66;;;8.19;45.56
30819;BME280;17546;42.674;23.284;2023-11-19T00:29:54;94691.72;;;8.00;46.19
30819;BME280;17546;42.674;23.284;2023-11-19T00:32:20;94638.09;;;7.86;45.82
30819;BME280;17546;42.674;23.284;2023-11-19T00:34:45;94689.25;;;8.64;44.66
30819;BME280;17546;42.674;23.284;2023-11-19T00:37:13;94696.41;;;8.15;46.32
30819;BME280;17546;42.674;23.284;2023-11-19T00:39:39;94679.84;;;8.15;45.51
30819;BME280;17546;42.674;23.284;2023-11-19T00:42:04;94703.84;;;8.90;44.61
30819;BME280;17546;42.674;23.284;2023-11-19T00:44:30;94683.81;;;8.49;45.10
30819;BME280;17546;42.674;23.284;2023-11-19T00:46:56;94669.78;;;8.12;45.69
30819;BME280;17546;42.674;23.284;2023-11-19T00:49:21;94634.47;;;7.60;46.43
30819;BME280;17546;42.674;23.284;2023-11-19T00:51:47;94680.81;;;8.12;46.06
30819;BME280;17546;42.674;23.284;2023-11-19T00:54:12;94687.59;;;7.10;48.44
30819;BME280;17546;42.674;23.284;2023-11-19T00:56:37;94649.84;;;7.16;47.98
30819;BME280;17546;42.674;23.284;2023-11-19T00:59:03;94678.53;;;7.24;47.78
30819;BME280;17546;42.674;23.284;2023-11-19T01:01:29;94697.13;;;7.59;47.40
30819;BME280;17546;42.674;23.284;2023-11-19T01:03:55;94681.22;;;7.04;48.93
30819;BME280;17546;42.674;23.284;2023-11-19T01:06:32;94699.38;;;7.76;47.26
30819;BME280;17546;42.674;23.284;2023-11-19T01:08:58;94697.53;;;7.37;48.27
30819;BME280;17546;42.674;23.284;2023-11-19T01:11:24;94704.81;;;8.05;46.64
30819;BME280;17546;42.674;23.284;2023-11-19T01:13:50;94679.50;;;7.21;47.95
30819;BME280;17546;42.674;23.284;2023-11-19T01:16:16;94698.63;;;7.75;46.89
30819;BME280;17546;42.674;23.284;2023-11-19T01:18:41;94707.59;;;7.55;47.92
30819;BME280;17546;42.674;23.284;2023-11-19T01:21:07;94696.38;;;7.59;47.45
30819;BME280;17546;42.674;23.284;2023-11-19T01:23:32;94653.22;;;7.56;47.08
30819;BME280;17546;42.674;23.284;2023-11-19T01:25:58;94689.50;;;7.69;47.00
30819;BME280;17546;42.674;23.284;2023-11-19T01:28:23;94701.03;;;7.68;46.72
30819;BME280;17546;42.674;23.284;2023-11-19T01:30:52;94714.84;;;8.44;45.94
30819;BME280;17546;42.674;23.284;2023-11-19T01:33:17;94699.91;;;8.15;45.90
30819;BME280;17546;42.674;23.284;2023-11-19T01:35:43;94674.63;;;7.81;45.96
30819;BME280;17546;42.674;23.284;2023-11-19T01:38:08;94717.91;;;8.11;45.67
30819;BME280;17546;42.674;23.284;2023-11-19T01:40:34;94730.03;;;8.34;45.13
30819;BME280;17546;42.674;23.284;2023-11-19T01:43:02;94666.09;;;7.79;45.38
30819;BME280;17546;42.674;23.284;2023-11-19T01:45:28;94695.69;;;7.64;46.19
30819;BME280;17546;42.674;23.284;2023-11-19T01:47:58;94692.94;;;7.64;45.43
30819;BME280;17546;42.674;23.284;2023-11-19T01:50:24;94714.13;;;7.73;46.04
30819;BME280;17546;42.674;23.284;2023-11-19T01:52:54;94700.47;;;7.99;45.27
30819;BME280;17546;42.674;23.284;2023-11-19T01:55:23;94720.97;;;7.77;45.61
30819;BME280;17546;42.674;23.284;2023-11-19T01:57:49;94673.41;;;7.17;46.63
30819;BME280;17546;42.674;23.284;2023-11-19T02:00:16;94719.47;;;7.61;46.42
30819;BME280;17546;42.674;23.284;2023-11-19T02:02:46;94731.94;;;7.42;46.61
30819;BME280;17546;42.674;23.284;2023-11-19T02:05:12;94705.63;;;7.26;46.08
30819;BME280;17546;42.674;23.284;2023-11-19T02:07:38;94723.69;;;7.92;45.66
30819;BME280;17546;42.674;23.284;2023-11-19T02:10:04;94694.28;;;7.89;45.09
30819;BME280;17546;42.674;23.284;2023-11-19T02:12:31;94694.81;;;8.28;44.41
30819;BME280;17546;42.674;23.284;2023-11-19T02:15:01;94710.34;;;8.05;44.62
30819;BME280;17546;42.674;23.284;2023-11-19T02:17:29;94658.97;;;7.37;45.25
30819;BME280;17546;42.674;23.284;2023-11-19T02:19:57;94705.28;;;8.04;45.22
30819;BME280;17546;42.674;23.284;2023-11-19T02:22:22;94714.50;;;8.36;44.11
30819;BME280;17546;42.674;23.284;2023-11-19T02:24:51;94688.53;;;7.87;44.61
30819;BME280;17546;42.674;23.284;2023-11-19T02:29:56;94703.59;;;8.27;44.06
30819;BME280;17546;42.674;23.284;2023-11-19T02:32:23;94667.34;;;7.99;44.20
30819;BME280;17546;42.674;23.284;2023-11-19T02:34:49;94707.97;;;7.98;44.81
30819;BME280;17546;42.674;23.284;2023-11-19T02:37:14;94698.13;;;8.12;44.89
30819;BME280;17546;42.674;23.284;2023-11-19T02:39:40;94695.50;;;8.03;44.81
30819;BME280;17546;42.674;23.284;2023-11-19T02:42:07;94643.31;;;7.64;44.91
30819;BME280;17546;42.674;23.284;2023-11-19T02:44:33;94685.56;;;7.76;44.85
30819;BME280;17546;42.674;23.284;2023-11-19T02:46:59;94664.84;;;7.80;44.56
30819;BME280;17546;42.674;23.284;2023-11-19T02:49:25;94692.16;;;7.78;44.84
30819;BME280;17546;42.674;23.284;2023-11-19T02:51:50;94669.88;;;7.32;45.31
30819;BME280;17546;42.674;23.284;2023-11-19T02:54:16;94673.16;;;8.01;44.44
30819;BME280;17546;42.674;23.284;2023-11-19T02:56:44;94715.31;;;8.22;44.31
30819;BME280;17546;42.674;23.284;2023-11-19T02:59:13;94674.56;;;7.26;45.82
30819;BME280;17546;42.674;23.284;2023-11-19T03:01:52;94681.16;;;7.63;44.89
30819;BME280;17546;42.674;23.284;2023-11-19T03:04:18;94710.34;;;8.05;44.81
30819;BME280;17546;42.674;23.284;2023-11-19T03:07:18;94686.72;;;7.84;44.73
30819;BME280;17546;42.674;23.284;2023-11-19T03:09:43;94719.16;;;8.10;44.40
30819;BME280;17546;42.674;23.284;2023-11-19T03:12:09;94669.81;;;7.26;45.08
30819;BME280;17546;42.674;23.284;2023-11-19T03:14:34;94722.81;;;8.01;44.58
30819;BME280;17546;42.674;23.284;2023-11-19T03:17:00;94678.16;;;8.02;43.90
30819;BME280;17546;42.674;23.284;2023-11-19T03:19:25;94721.66;;;8.07;44.53
30819;BME280;17546;42.674;23.284;2023-11-19T03:21:52;94706.69;;;8.14;44.27
30819;BME280;17546;42.674;23.284;2023-11-19T03:24:17;94686.28;;;7.91;44.39
30819;BME280;17546;42.674;23.284;2023-11-19T03:26:48;94736.31;;;8.34;43.92
30819;BME280;17546;42.674;23.284;2023-11-19T03:29:15;94724.09;;;8.61;44.34
30819;BME280;17546;42.674;23.284;2023-11-19T03:31:43;94692.91;;;7.79;44.77
30819;BME280;17546;42.674;23.284;2023-11-19T03:34:10;94714.06;;;7.52;45.54
30819;BME280;17546;42.674;23.284;2023-11-19T03:36:35;94685.06;;;7.92;44.42
30819;BME280;17546;42.674;23.284;2023-11-19T03:39:01;94738.47;;;8.10;44.50
30819;BME280;17546;42.674;23.284;2023-11-19T03:41:28;94709.00;;;7.65;45.04
30819;BME280;17546;42.674;23.284;2023-11-19T03:43:54;94730.78;;;7.63;45.63
30819;BME280;17546;42.674;23.284;2023-11-19T03:46:20;94745.16;;;8.03;44.87
30819;BME280;17546;42.674;23.284;2023-11-19T03:48:49;94758.28;;;8.08;44.62
30819;BME280;17546;42.674;23.284;2023-11-19T03:51:15;94758.00;;;7.41;45.61
30819;BME280;17546;42.674;23.284;2023-11-19T03:53:45;94755.66;;;7.69;45.88
30819;BME280;17546;42.674;23.284;2023-11-19T03:56:11;94730.78;;;7.34;45.67
30819;BME280;17546;42.674;23.284;2023-11-19T03:58:37;94761.78;;;7.43;46.56
30819;BME280;17546;42.674;23.284;2023-11-19T04:01:04;94745.03;;;7.47;45.96
30819;BME280;17546;42.674;23.284;2023-11-19T04:03:30;94733.66;;;7.24;45.84
30819;BME280;17546;42.674;23.284;2023-11-19T04:05:55;94766.06;;;7.59;45.93
30819;BME280;17546;42.674;23.284;2023-11-19T04:08:21;94749.88;;;6.93;47.01
30819;BME280;17546;42.674;23.284;2023-11-19T04:10:47;94734.97;;;7.14;46.29
30819;BME280;17546;42.674;23.284;2023-11-19T04:13:13;94753.50;;;6.60;47.44
30819;BME280;17546;42.674;23.284;2023-11-19T04:15:38;94759.41;;;7.21;46.76
30819;BME280;17546;42.674;23.284;2023-11-19T04:18:04;94736.13;;;7.37;46.04
30819;BME280;17546;42.674;23.284;2023-11-19T04:20:29;94754.09;;;7.48;45.21
30819;BME280;17546;42.674;23.284;2023-11-19T04:22:57;94775.47;;;7.68;45.28
30819;BME280;17546;42.674;23.284;2023-11-19T04:25:22;94774.09;;;7.78;45.00
30819;BME280;17546;42.674;23.284;2023-11-19T04:27:50;94771.78;;;8.06;44.68
30819;BME280;17546;42.674;23.284;2023-11-19T04:30:15;94763.44;;;8.00;44.33
30819;BME280;17546;42.674;23.284;2023-11-19T04:32:41;94752.16;;;7.54;44.72
30819;BME280;17546;42.674;23.284;2023-11-19T04:35:07;94736.69;;;7.56;44.77
30819;BME280;17546;42.674;23.284;2023-11-19T04:37:32;94793.91;;;7.61;45.43
30819;BME280;17546;42.674;23.284;2023-11-19T04:39:58;94748.06;;;7.79;44.64
30819;BME280;17546;42.674;23.284;2023-11-19T04:42:25;94735.53;;;7.63;44.54
30819;BME280;17546;42.674;23.284;2023-11-19T04:44:50;94751.63;;;8.00;43.70
30819;BME280;17546;42.674;23.284;2023-11-19T04:47:16;94792.53;;;8.01;44.51
30819;BME280;17546;42.674;23.284;2023-11-19T04:49:41;94770.13;;;7.79;45.06
30819;BME280;17546;42.674;23.284;2023-11-19T04:52:10;94736.00;;;7.61;44.43
30819;BME280;17546;42.674;23.284;2023-11-19T04:54:46;94798.19;;;8.42;43.46
30819;BME280;17546;42.674;23.284;2023-11-19T04:57:11;94725.56;;;8.01;43.41
30819;BME280;17546;42.674;23.284;2023-11-19T04:59:37;94761.69;;;8.38;43.03
30819;BME280;17546;42.674;23.284;2023-11-19T05:02:04;94758.84;;;8.68;42.61
30819;BME280;17546;42.674;23.284;2023-11-19T05:04:30;94817.31;;;8.66;42.88
30819;BME280;17546;42.674;23.284;2023-11-19T05:06:55;94798.38;;;8.24;43.45
30819;BME280;17546;42.674;23.284;2023-11-19T05:09:20;94800.72;;;8.46;42.88
30819;BME280;17546;42.674;23.284;2023-11-19T05:11:46;94832.91;;;8.69;42.77
30819;BME280;17546;42.674;23.284;2023-11-19T05:14:11;94808.81;;;8.70;42.60
30819;BME280;17546;42.674;23.284;2023-11-19T05:16:39;94819.69;;;8.74;42.58
30819;BME280;17546;42.674;23.284;2023-11-19T05:19:05;94774.97;;;8.19;43.00
30819;BME280;17546;42.674;23.284;2023-11-19T05:21:31;94785.38;;;8.60;42.88
30819;BME280;17546;42.674;23.284;2023-11-19T05:23:56;94818.31;;;8.48;42.98
30819;BME280;17546;42.674;23.284;2023-11-19T05:26:23;94828.63;;;8.33;43.25
30819;BME280;17546;42.674;23.284;2023-11-19T05:28:49;94820.13;;;8.01;43.91
30819;BME280;17546;42.674;23.284;2023-11-19T05:31:16;94809.91;;;8.22;43.34
30819;BME280;17546;42.674;23.284;2023-11-19T05:33:42;94783.75;;;7.68;43.95
30819;BME280;17546;42.674;23.284;2023-11-19T05:36:08;94821.09;;;7.98;44.11
30819;BME280;17546;42.674;23.284;2023-11-19T05:38:34;94788.94;;;7.36;44.67
30819;BME280;17546;42.674;23.284;2023-11-19T05:41:00;94765.56;;;7.16;44.96
30819;BME280;17546;42.674;23.284;2023-11-19T05:43:25;94791.03;;;8.00;43.82
30819;BME280;17546;42.674;23.284;2023-11-19T05:45:51;94795.56;;;8.03;43.69
30819;BME280;17546;42.674;23.284;2023-11-19T05:48:16;94831.56;;;7.94;44.08
30819;BME280;17546;42.674;23.284;2023-11-19T05:50:42;94805.28;;;8.14;43.65
30819;BME280;17546;42.674;23.284;2023-11-19T05:53:07;94827.34;;;7.24;44.97
30819;BME280;17546;42.674;23.284;2023-11-19T05:55:39;94796.16;;;7.18;45.62
30819;BME280;17546;42.674;23.284;2023-11-19T05:58:25;94794.94;;;7.94;43.72
30819;BME280;17546;42.674;23.284;2023-11-19T06:00:52;94775.38;;;7.32;44.63
30819;BME280;17546;42.674;23.284;2023-11-19T06:03:18;94860.81;;;8.06;44.54
30819;BME280;17546;42.674;23.284;2023-11-19T06:05:47;94848.09;;;7.94;44.34
30819;BME280;17546;42.674;23.284;2023-11-19T06:08:13;94848.94;;;7.71;44.68
30819;BME280;17546;42.674;23.284;2023-11-19T06:10:39;94802.38;;;7.43;44.63
30819;BME280;17546;42.674;23.284;2023-11-19T06:13:05;94863.13;;;7.93;44.54
30819;BME280;17546;42.674;23.284;2023-11-19T06:15:32;94791.81;;;7.56;44.48
30819;BME280;17546;42.674;23.284;2023-11-19T06:17:58;94818.22;;;8.07;44.05
30819;BME280;17546;42.674;23.284;2023-11-19T06:20:26;94812.44;;;7.76;44.35
30819;BME280;17546;42.674;23.284;2023-11-19T06:22:54;94858.16;;;8.27;43.95
30819;BME280;17546;42.674;23.284;2023-11-19T06:25:20;94809.47;;;7.94;44.05
30819;BME280;17546;42.674;23.284;2023-11-19T06:27:45;94834.13;;;7.53;45.06
30819;BME280;17546;42.674;23.284;2023-11-19T06:30:11;94852.88;;;7.25;45.79
30819;BME280;17546;42.674;23.284;2023-11-19T06:32:37;94819.84;;;7.40;45.33
30819;BME280;17546;42.674;23.284;2023-11-19T06:35:02;94814.41;;;7.31;45.46
30819;BME280;17546;42.674;23.284;2023-11-19T06:37:30;94816.97;;;6.80;46.06
30819;BME280;17546;42.674;23.284;2023-11-19T06:39:55;94863.16;;;7.24;45.86
30819;BME280;17546;42.674;23.284;2023-11-19T06:42:21;94804.63;;;7.30;45.21
30819;BME280;17546;42.674;23.284;2023-11-19T06:44:46;94838.94;;;7.29;45.13
30819;BME280;17546;42.674;23.284;2023-11-19T06:47:12;94868.00;;;7.30;45.45
30819;BME280;17546;42.674;23.284;2023-11-19T06:49:37;94848.06;;;6.72;46.35
30819;BME280;17546;42.674;23.284;2023-11-19T06:52:03;94833.03;;;6.58;46.18
30819;BME280;17546;42.674;23.284;2023-11-19T06:54:29;94858.88;;;7.23;45.79
30819;BME280;17546;42.674;23.284;2023-11-19T06:56:56;94776.50;;;6.48;45.78
30819;BME280;17546;42.674;23.284;2023-11-19T06:59:22;94810.69;;;6.32;47.70
30819;BME280;17546;42.674;23.284;2023-11-19T07:01:48;94822.38;;;6.51;46.79
30819;BME280;17546;42.674;23.284;2023-11-19T07:04:13;94859.28;;;6.35;47.36
30819;BME280;17546;42.674;23.284;2023-11-19T07:06:39;94818.50;;;6.81;45.75
30819;BME280;17546;42.674;23.284;2023-11-19T07:09:06;94834.66;;;6.89;45.79
30819;BME280;17546;42.674;23.284;2023-11-19T07:11:36;94840.41;;;6.52;46.35
30819;BME280;17546;42.674;23.284;2023-11-19T07:14:03;94877.91;;;6.73;47.20
30819;BME280;17546;42.674;23.284;2023-11-19T07:16:28;94833.19;;;6.54;46.87
30819;BME280;17546;42.674;23.284;2023-11-19T07:18:53;94820.84;;;6.50;46.32
30819;BME280;17546;42.674;23.284;2023-11-19T07:21:19;94785.66;;;5.96;46.86
30819;BME280;17546;42.674;23.284;2023-11-19T07:23:45;94827.91;;;6.41;46.70
30819;BME280;17546;42.674;23.284;2023-11-19T07:26:12;94787.06;;;6.49;46.21
30819;BME280;17546;42.674;23.284;2023-11-19T07:28:38;94860.75;;;7.17;45.38
30819;BME280;17546;42.674;23.284;2023-11-19T07:31:05;94864.19;;;7.27;45.41
30819;BME280;17546;42.674;23.284;2023-11-19T07:33:33;94835.97;;;7.17;44.60
30819;BME280;17546;42.674;23.284;2023-11-19T07:35:59;94856.00;;;7.18;44.98
30819;BME280;17546;42.674;23.284;2023-11-19T07:38:24;94862.88;;;6.74;46.05
30819;BME280;17546;42.674;23.284;2023-11-19T07:40:50;94847.22;;;7.04;44.78
30819;BME280;17546;42.674;23.284;2023-11-19T07:43:16;94881.00;;;6.90;44.54
30819;BME280;17546;42.674;23.284;2023-11-19T07:45:41;94874.94;;;7.01;44.88
30819;BME280;17546;42.674;23.284;2023-11-19T07:48:10;94867.63;;;7.22;44.65
30819;BME280;17546;42.674;23.284;2023-11-19T07:50:39;94891.19;;;7.92;43.56
30819;BME280;17546;42.674;23.284;2023-11-19T07:53:07;94846.81;;;7.21;43.82
30819;BME280;17546;42.674;23.284;2023-11-19T07:55:34;94872.25;;;6.92;45.25
30819;BME280;17546;42.674;23.284;2023-11-19T07:57:59;94867.72;;;6.89;45.16
30819;BME280;17546;42.674;23.284;2023-11-19T08:00:25;94885.75;;;6.90;45.17
30819;BME280;17546;42.674;23.284;2023-11-19T08:02:50;94869.94;;;7.14;44.45
30819;BME280;17546;42.674;23.284;2023-11-19T08:05:15;94885.53;;;7.41;43.90
30819;BME280;17546;42.674;23.284;2023-11-19T08:07:41;94885.16;;;7.49;43.78
30819;BME280;17546;42.674;23.284;2023-11-19T08:10:07;94847.78;;;6.94;44.40
30819;BME280;17546;42.674;23.284;2023-11-19T08:12:35;94851.41;;;6.52;45.04
30819;BME280;17546;42.674;23.284;2023-11-19T08:15:02;94884.69;;;6.87;44.93
30819;BME280;17546;42.674;23.284;2023-11-19T08:17:29;94905.72;;;7.23;44.54
30819;BME280;17546;42.674;23.284;2023-11-19T08:19:54;94869.00;;;6.78;45.12
30819;BME280;17546;42.674;23.284;2023-11-19T08:22:20;94856.31;;;6.96;44.01
30819;BME280;17546;42.674;23.284;2023-11-19T08:24:45;94900.66;;;6.50;46.15
30819;BME280;17546;42.674;23.284;2023-11-19T08:27:11;94887.84;;;6.47;45.76
30819;BME280;17546;42.674;23.284;2023-11-19T08:29:36;94891.41;;;6.62;45.45
30819;BME280;17546;42.674;23.284;2023-11-19T08:32:02;94898.59;;;6.35;45.80
30819;BME280;17546;42.674;23.284;2023-11-19T08:34:29;94890.19;;;6.63;45.24
30819;BME280;17546;42.674;23.284;2023-11-19T08:36:54;94915.84;;;6.69;46.18
30819;BME280;17546;42.674;23.284;2023-11-19T08:39:21;94925.84;;;6.24;46.60
30819;BME280;17546;42.674;23.284;2023-11-19T08:41:47;94903.34;;;6.59;46.17
30819;BME280;17546;42.674;23.284;2023-11-19T08:44:13;94884.72;;;6.54;45.23
30819;BME280;17546;42.674;23.284;2023-11-19T08:46:45;94912.66;;;7.19;44.24
30819;BME280;17546;42.674;23.284;2023-11-19T08:49:11;94936.19;;;6.96;45.53
30819;BME280;17546;42.674;23.284;2023-11-19T08:51:36;94882.59;;;7.06;44.00
30819;BME280;17546;42.674;23.284;2023-11-19T08:54:01;94910.34;;;7.17;43.81
30819;BME280;17546;42.674;23.284;2023-11-19T08:56:27;94920.53;;;7.50;43.36
30819;BME280;17546;42.674;23.284;2023-11-19T08:58:57;94947.22;;;7.83;42.56
30819;BME280;17546;42.674;23.284;2023-11-19T09:01:22;94934.59;;;7.67;42.66
30819;BME280;17546;42.674;23.284;2023-11-19T09:03:48;94925.78;;;7.63;42.71
30819;BME280;17546;42.674;23.284;2023-11-19T09:06:13;94882.34;;;7.73;42.46
30819;BME280;17546;42.674;23.284;2023-11-19T09:08:38;94918.16;;;7.58;43.36
30819;BME280;17546;42.674;23.284;2023-11-19T09:11:07;94920.59;;;7.41;43.79
30819;BME280;17546;42.674;23.284;2023-11-19T09:13:33;94885.56;;;7.56;43.27
30819;BME280;17546;42.674;23.284;2023-11-19T09:15:58;94926.47;;;8.17;42.54
30819;BME280;17546;42.674;23.284;2023-11-19T09:18:28;94905.94;;;8.03;42.92
30819;BME280;17546;42.674;23.284;2023-11-19T09:20:54;94878.25;;;7.29;43.31
30819;BME280;17546;42.674;23.284;2023-11-19T09:23:19;94919.97;;;7.76;43.19
30819;BME280;17546;42.674;23.284;2023-11-19T09:25:45;94897.72;;;7.64;42.83
30819;BME280;17546;42.674;23.284;2023-11-19T09:28:10;94909.16;;;7.72;43.06
30819;BME280;17546;42.674;23.284;2023-11-19T09:30:39;94920.34;;;7.30;43.80
30819;BME280;17546;42.674;23.284;2023-11-19T09:33:05;94900.53;;;7.40;43.21
30819;BME280;17546;42.674;23.284;2023-11-19T09:35:31;94886.75;;;7.01;43.74
30819;BME280;17546;42.674;23.284;2023-11-19T09:37:56;94883.56;;;7.57;43.07
30819;BME280;17546;42.674;23.284;2023-11-19T09:40:22;94900.78;;;7.66;43.50
30819;BME280;17546;42.674;23.284;2023-11-19T09:42:48;94853.66;;;7.40;43.74
30819;BME280;17546;42.674;23.284;2023-11-19T09:45:15;94855.41;;;7.53;43.24
30819;BME280;17546;42.674;23.284;2023-11-19T09:47:45;94867.94;;;8.28;42.62
30819;BME280;17546;42.674;23.284;2023-11-19T09:50:18;94844.69;;;8.35;42.13
30819;BME280;17546;42.674;23.284;2023-11-19T09:52:45;94853.75;;;8.35;42.48
30819;BME280;17546;42.674;23.284;2023-11-19T09:55:10;94869.56;;;8.20;42.96
30819;BME280;17546;42.674;23.284;2023-11-19T09:57:38;94861.56;;;8.22;43.08
30819;BME280;17546;42.674;23.284;2023-11-19T10:00:06;94855.69;;;8.29;42.28
30819;BME280;17546;42.674;23.284;2023-11-19T10:02:33;94843.16;;;8.48;42.08
30819;BME280;17546;42.674;23.284;2023-11-19T10:05:04;94859.53;;;8.87;41.49
30819;BME280;17546;42.674;23.284;2023-11-19T10:07:31;94829.53;;;9.01;41.11
30819;BME280;17546;42.674;23.284;2023-11-19T10:10:04;94811.09;;;8.51;41.62
30819;BME280;17546;42.674;23.284;2023-11-19T10:12:30;94865.19;;;9.40;41.05
30819;BME280;17546;42.674;23.284;2023-11-19T10:14:57;94860.22;;;9.03;41.23
30819;BME280;17546;42.674;23.284;2023-11-19T10:17:41;94878.59;;;9.26;40.21
30819;BME280;17546;42.674;23.284;2023-11-19T10:20:09;94842.13;;;9.22;39.80
30819;BME280;17546;42.674;23.284;2023-11-19T10:22:38;94873.88;;;9.53;39.86
30819;BME280;17546;42.674;23.284;2023-11-19T10:25:05;94862.56;;;9.30;39.66
30819;BME280;17546;42.674;23.284;2023-11-19T10:27:47;94862.00;;;9.26;39.67
30819;BME280;17546;42.674;23.284;2023-11-19T10:30:13;94839.34;;;9.22;39.87
30819;BME280;17546;42.674;23.284;2023-11-19T10:32:38;94796.78;;;9.14;39.52
30819;BME280;17546;42.674;23.284;2023-11-19T10:35:07;94831.34;;;8.83;40.49
30819;BME280;17546;42.674;23.284;2023-11-19T10:37:32;94812.13;;;8.54;40.89
30819;BME280;17546;42.674;23.284;2023-11-19T10:40:00;94790.53;;;8.37;41.07
30819;BME280;17546;42.674;23.284;2023-11-19T10:42:26;94825.25;;;8.59;41.20
30819;BME280;17546;42.674;23.284;2023-11-19T10:44:51;94867.91;;;8.93;40.88
30819;BME280;17546;42.674;23.284;2023-11-19T10:47:19;94819.69;;;8.74;40.73
30819;BME280;17546;42.674;23.284;2023-11-19T10:49:45;94830.38;;;8.16;42.14
30819;BME280;17546;42.674;23.284;2023-11-19T10:52:18;94858.94;;;7.98;42.91
30819;BME280;17546;42.674;23.284;2023-11-19T10:54:50;94854.38;;;7.50;44.17
30819;BME280;17546;42.674;23.284;2023-11-19T10:57:29;94796.63;;;7.32;43.42
30819;BME280;17546;42.674;23.284;2023-11-19T11:00:01;94822.81;;;7.81;43.17
30819;BME280;17546;42.674;23.284;2023-11-19T11:02:27;94842.88;;;7.96;42.88
30819;BME280;17546;42.674;23.284;2023-11-19T11:04:54;94783.63;;;7.62;42.89
30819;BME280;17546;42.674;23.284;2023-11-19T11:07:22;94800.13;;;8.06;42.28
30819;BME280;17546;42.674;23.284;2023-11-19T11:09:51;94735.31;;;7.66;42.20
30819;BME280;17546;42.674;23.284;2023-11-19T11:12:21;94807.94;;;8.58;41.65
30819;BME280;17546;42.674;23.284;2023-11-19T11:14:49;94755.44;;;8.38;41.15
30819;BME280;17546;42.674;23.284;2023-11-19T11:17:17;94793.78;;;8.92;40.89
30819;BME280;17546;42.674;23.284;2023-11-19T11:19:43;94794.56;;;7.86;42.34
30819;BME280;17546;42.674;23.284;2023-11-19T11:22:10;94788.88;;;8.25;42.06
30819;BME280;17546;42.674;23.284;2023-11-19T11:27:22;94807.78;;;8.32;41.98
30819;BME280;17546;42.674;23.284;2023-11-19T11:30:29;94812.97;;;8.60;41.45
30819;BME280;17546;42.674;23.284;2023-11-19T11:33:26;94814.13;;;8.03;42.00
30819;BME280;17546;42.674;23.284;2023-11-19T11:36:13;94784.94;;;7.96;42.07
30819;BME280;17546;42.674;23.284;2023-11-19T11:38:40;94802.81;;;7.86;42.38
30819;BME280;17546;42.674;23.284;2023-11-19T11:41:27;94789.34;;;8.59;41.69
30819;BME280;17546;42.674;23.284;2023-11-19T11:43:53;94753.72;;;9.02;40.49
30819;BME280;17546;42.674;23.284;2023-11-19T11:49:01;94770.91;;;8.50;41.56
30819;BME280;17546;42.674;23.284;2023-11-19T11:54:08;94763.03;;;9.04;41.20
30819;BME280;17546;42.674;23.284;2023-11-19T11:56:33;94747.84;;;9.20;40.34
30819;BME280;17546;42.674;23.284;2023-11-19T11:59:02;94747.78;;;8.88;40.54
30819;BME280;17546;42.674;23.284;2023-11-19T12:01:30;94792.72;;;9.88;39.56
30819;BME280;17546;42.674;23.284;2023-11-19T12:03:56;94787.41;;;9.84;38.95
30819;BME280;17546;42.674;23.284;2023-11-19T12:06:22;94771.81;;;9.55;39.32
30819;BME280;17546;42.674;23.284;2023-11-19T12:08:47;94775.50;;;9.46;39.58
30819;BME280;17546;42.674;23.284;2023-11-19T12:11:14;94761.09;;;10.00;38.55
30819;BME280;17546;42.674;23.284;2023-11-19T12:13:55;94756.81;;;10.31;38.15
30819;BME280;17546;42.674;23.284;2023-11-19T12:16:27;94754.50;;;9.92;38.60
30819;BME280;17546;42.674;23.284;2023-11-19T12:18:54;94739.72;;;10.38;37.62
30819;BME280;17546;42.674;23.284;2023-11-19T12:21:28;94744.75;;;10.34;37.58
30819;BME280;17546;42.674;23.284;2023-11-19T12:23:58;94745.38;;;10.61;37.48
30819;BME280;17546;42.674;23.284;2023-11-19T12:26:33;94708.59;;;10.11;37.58
30819;BME280;17546;42.674;23.284;2023-11-19T12:29:00;94747.03;;;9.66;38.26
30819;BME280;17546;42.674;23.284;2023-11-19T12:31:26;94678.41;;;9.70;37.89
30819;BME280;17546;42.674;23.284;2023-11-19T12:33:51;94667.34;;;9.70;37.77
30819;BME280;17546;42.674;23.284;2023-11-19T12:36:19;94733.91;;;10.90;37.54
30819;BME280;17546;42.674;23.284;2023-11-19T12:38:45;94714.41;;;10.57;36.97
30819;BME280;17546;42.674;23.284;2023-11-19T12:41:11;94713.91;;;10.64;37.34
30819;BME280;17546;42.674;23.284;2023-11-19T12:43:38;94737.47;;;10.96;37.21
30819;BME280;17546;42.674;23.284;2023-11-19T12:46:24;94720.00;;;10.79;37.66
30819;BME280;17546;42.674;23.284;2023-11-19T12:48:50;94715.22;;;10.74;37.84
30819;BME280;17546;42.674;23.284;2023-11-19T12:51:19;94727.94;;;11.20;37.89
30819;BME280;17546;42.674;23.284;2023-11-19T12:53:50;94726.66;;;11.15;37.67
30819;BME280;17546;42.674;23.284;2023-11-19T12:56:20;94694.63;;;10.98;37.46
30819;BME280;17546;42.674;23.284;2023-11-19T12:58:48;94705.78;;;11.20;37.20
30819;BME280;17546;42.674;23.284;2023-11-19T13:01:18;94690.59;;;10.99;38.00
30819;BME280;17546;42.674;23.284;2023-11-19T13:03:46;94709.00;;;10.96;38.15
30819;BME280;17546;42.674;23.284;2023-11-19T13:06:13;94675.97;;;10.92;37.65
30819;BME280;17546;42.674;23.284;2023-11-19T13:08:42;94670.41;;;10.81;37.96
30819;BME280;17546;42.674;23.284;2023-11-19T13:11:10;94682.75;;;10.86;38.26